sensor_id;sensor_type;location;lat;lon;timestamp;pressure;altitude;pressure_sealevel;temperature;humidity
41862;BME280;27537;57.134;-2.136;2023-01-29T00:01:18;101554.34;;;1.61;100.00
41862;BME280;27537;57.134;-2.136;2023-01-29T00:03:45;101562.09;;;1.61;100.00
41862;BME280;27537;57.134;-2.136;2023-01-29T00:06:11;101560.56;;;1.74;100.00
41862;BME280;27537;57.134;-2.136;2023-01-29T00:08:38;101548.59;;;1.83;100.00
41862;BME280;27537;57.134;-2.136;2023-01-29T00:11:06;101530.41;;;1.73;100.00
41862;BME280;27537;57.134;-2.136;2023-01-29T00:13:32;101516.53;;;1.61;100.00
41862;BME280;27537;57.134;-2.136;2023-01-29T00:16:02;101502.59;;;1.50;100.00
41862;BME280;27537;57.134;-2.136;2023-01-29T00:18:29;101500.03;;;1.51;100.00
41862;BME280;27537;57.134;-2.136;2023-01-29T00:20:56;101493.34;;;1.67;100.00
41862;BME280;27537;57.134;-2.136;2023-01-29T00:23:22;101493.38;;;1.70;100.00
41862;BME280;27537;57.134;-2.136;2023-01-29T00:25:50;101507.25;;;1.82;100.00
41862;BME280;27537;57.134;-2.136;2023-01-29T00:28:16;101528.06;;;1.94;100.00
41862;BME280;27537;57.134;-2.136;2023-01-29T00:30:43;101510.97;;;2.05;100.00
41862;BME280;27537;57.134;-2.136;2023-01-29T00:33:10;101501.50;;;2.07;100.00
41862;BME280;27537;57.134;-2.136;2023-01-29T00:35:39;101484.22;;;1.99;100.00
41862;BME280;27537;57.134;-2.136;2023-01-29T00:38:06;101490.22;;;1.99;100.00
41862;BME280;27537;57.134;-2.136;2023-01-29T00:40:35;101490.16;;;1.95;100.00
41862;BME280;27537;57.134;-2.136;2023-01-29T00:43:22;101479.00;;;1.96;100.00
41862;BME280;27537;57.134;-2.136;2023-01-29T00:46:07;101466.81;;;1.82;100.00
41862;BME280;27537;57.134;-2.136;2023-01-29T00:48:34;101453.03;;;1.82;100.00
41862;BME280;27537;57.134;-2.136;2023-01-29T00:51:01;101456.50;;;1.84;100.00
41862;BME280;27537;57.134;-2.136;2023-01-29T00:53:28;101452.22;;;1.87;100.00
41862;BME280;27537;57.134;-2.136;2023-01-29T00:55:55;101452.28;;;1.92;100.00
41862;BME280;27537;57.134;-2.136;2023-01-29T00:58:21;101466.09;;;1.97;100.00
41862;BME280;27537;57.134;-2.136;2023-01-29T01:00:53;101469.63;;;2.05;100.00
41862;BME280;27537;57.134;-2.136;2023-01-29T01:03:20;101463.50;;;1.94;100.00
41862;BME280;27537;57.134;-2.136;2023-01-29T01:05:47;101468.59;;;1.88;100.00
41862;BME280;27537;57.134;-2.136;2023-01-29T01:08:14;101484.09;;;1.88;100.00
41862;BME280;27537;57.134;-2.136;2023-01-29T01:11:00;101477.25;;;1.92;100.00
41862;BME280;27537;57.134;-2.136;2023-01-29T01:13:28;101471.22;;;1.93;100.00
41862;BME280;27537;57.134;-2.136;2023-01-29T01:15:56;101455.69;;;1.88;100.00
41862;BME280;27537;57.134;-2.136;2023-01-29T01:18:23;101427.25;;;1.85;100.00
41862;BME280;27537;57.134;-2.136;2023-01-29T01:20:49;101430.75;;;1.92;100.00
41862;BME280;27537;57.134;-2.136;2023-01-29T01:23:17;101425.72;;;2.04;100.00
41862;BME280;27537;57.134;-2.136;2023-01-29T01:25:44;101424.81;;;2.03;100.00
41862;BME280;27537;57.134;-2.136;2023-01-29T01:28:11;101401.66;;;2.16;100.00
41862;BME280;27537;57.134;-2.136;2023-01-29T01:30:38;101411.25;;;2.27;100.00
41862;BME280;27537;57.134;-2.136;2023-01-29T01:33:05;101414.81;;;2.43;100.00
41862;BME280;27537;57.134;-2.136;2023-01-29T01:35:31;101418.28;;;2.49;100.00
41862;BME280;27537;57.134;-2.136;2023-01-29T01:37:58;101418.31;;;2.55;100.00
41862;BME280;27537;57.134;-2.136;2023-01-29T01:40:25;101406.28;;;2.57;100.00
41862;BME280;27537;57.134;-2.136;2023-01-29T01:42:53;101397.69;;;2.61;100.00
41862;BME280;27537;57.134;-2.136;2023-01-29T01:47:51;101367.56;;;2.71;100.00
41862;BME280;27537;57.134;-2.136;2023-01-29T01:50:55;101351.28;;;2.92;100.00
41862;BME280;27537;57.134;-2.136;2023-01-29T01:53:14;101355.69;;;3.17;100.00
41862;BME280;27537;57.134;-2.136;2023-01-29T01:55:49;101355.69;;;3.22;100.00
41862;BME280;27537;57.134;-2.136;2023-01-29T01:58:21;101360.03;;;3.34;100.00
41862;BME280;27537;57.134;-2.136;2023-01-29T02:00:49;101355.72;;;3.40;100.00
41862;BME280;27537;57.134;-2.136;2023-01-29T02:03:16;101347.94;;;3.19;100.00
41862;BME280;27537;57.134;-2.136;2023-01-29T02:06:03;101346.13;;;2.96;100.00
41862;BME280;27537;57.134;-2.136;2023-01-29T02:08:56;101347.78;;;2.80;100.00
41862;BME280;27537;57.134;-2.136;2023-01-29T02:11:42;101346.06;;;2.82;100.00
41862;BME280;27537;57.134;-2.136;2023-01-29T02:14:09;101324.53;;;2.83;100.00
41862;BME280;27537;57.134;-2.136;2023-01-29T02:16:36;101317.59;;;2.79;100.00
41862;BME280;27537;57.134;-2.136;2023-01-29T02:19:09;101309.00;;;2.82;100.00
41862;BME280;27537;57.134;-2.136;2023-01-29T02:26:42;101297.75;;;2.74;100.00
41862;BME280;27537;57.134;-2.136;2023-01-29T02:29:18;101294.31;;;2.72;100.00
41862;BME280;27537;57.134;-2.136;2023-01-29T02:44:54;101253.81;;;2.81;100.00
41862;BME280;27537;57.134;-2.136;2023-01-29T02:47:36;101252.09;;;2.88;100.00
41862;BME280;27537;57.134;-2.136;2023-01-29T02:55:14;101247.00;;;3.08;100.00
41862;BME280;27537;57.134;-2.136;2023-01-29T02:57:43;101244.41;;;3.16;100.00
41862;BME280;27537;57.134;-2.136;2023-01-29T03:00:16;101233.19;;;3.21;100.00
41862;BME280;27537;57.134;-2.136;2023-01-29T03:02:58;101229.75;;;3.32;100.00
41862;BME280;27537;57.134;-2.136;2023-01-29T03:08:22;101213.34;;;3.42;100.00
41862;BME280;27537;57.134;-2.136;2023-01-29T03:11:03;101212.47;;;3.52;100.00
41862;BME280;27537;57.134;-2.136;2023-01-29T03:19:01;101184.81;;;3.71;100.00
41862;BME280;27537;57.134;-2.136;2023-01-29T03:21:30;101180.50;;;3.72;100.00
41862;BME280;27537;57.134;-2.136;2023-01-29T03:24:44;101166.69;;;3.70;100.00
41862;BME280;27537;57.134;-2.136;2023-01-29T03:27:46;101167.53;;;3.73;100.00
41862;BME280;27537;57.134;-2.136;2023-01-29T03:30:34;101160.63;;;3.78;100.00
41862;BME280;27537;57.134;-2.136;2023-01-29T03:33:21;101152.84;;;3.85;100.00
41862;BME280;27537;57.134;-2.136;2023-01-29T03:35:50;101145.03;;;3.94;100.00
41862;BME280;27537;57.134;-2.136;2023-01-29T03:38:19;101145.00;;;4.08;100.00
41862;BME280;27537;57.134;-2.136;2023-01-29T03:40:52;101138.09;;;4.05;100.00
41862;BME280;27537;57.134;-2.136;2023-01-29T03:43:37;101135.47;;;4.08;100.00
41862;BME280;27537;57.134;-2.136;2023-01-29T03:48:58;101107.81;;;4.16;100.00
41862;BME280;27537;57.134;-2.136;2023-01-29T03:51:33;101103.50;;;4.15;100.00
41862;BME280;27537;57.134;-2.136;2023-01-29T03:59:19;101090.47;;;4.25;100.00
41862;BME280;27537;57.134;-2.136;2023-01-29T04:01:43;101085.25;;;4.34;100.00
41862;BME280;27537;57.134;-2.136;2023-01-29T04:04:14;101062.72;;;4.42;100.00
41862;BME280;27537;57.134;-2.136;2023-01-29T04:06:42;101066.13;;;4.46;100.00
41862;BME280;27537;57.134;-2.136;2023-01-29T04:11:39;101077.25;;;4.62;100.00
41862;BME280;27537;57.134;-2.136;2023-01-29T04:14:07;101084.25;;;4.52;100.00
41862;BME280;27537;57.134;-2.136;2023-01-29T04:16:35;101078.16;;;4.62;100.00
41862;BME280;27537;57.134;-2.136;2023-01-29T04:19:03;101068.56;;;4.70;100.00
41862;BME280;27537;57.134;-2.136;2023-01-29T04:21:30;101061.56;;;4.82;100.00
41862;BME280;27537;57.134;-2.136;2023-01-29T04:23:58;101059.81;;;4.82;100.00
41862;BME280;27537;57.134;-2.136;2023-01-29T04:31:26;101065.03;;;4.76;100.00
41862;BME280;27537;57.134;-2.136;2023-01-29T04:36:36;101052.97;;;4.72;100.00
41862;BME280;27537;57.134;-2.136;2023-01-29T04:41:36;101042.59;;;4.73;100.00
41862;BME280;27537;57.134;-2.136;2023-01-29T04:46:45;101024.53;;;4.61;100.00
41862;BME280;27537;57.134;-2.136;2023-01-29T04:54:18;100995.19;;;4.57;100.00
41862;BME280;27537;57.134;-2.136;2023-01-29T04:59:29;100989.19;;;4.51;100.00
41862;BME280;27537;57.134;-2.136;2023-01-29T05:01:58;100988.25;;;4.55;100.00
41862;BME280;27537;57.134;-2.136;2023-01-29T05:04:26;100989.06;;;4.66;100.00
41862;BME280;27537;57.134;-2.136;2023-01-29T05:06:53;100983.00;;;4.66;100.00
41862;BME280;27537;57.134;-2.136;2023-01-29T05:09:21;100963.84;;;4.79;100.00
41862;BME280;27537;57.134;-2.136;2023-01-29T05:11:48;100955.97;;;4.87;100.00
41862;BME280;27537;57.134;-2.136;2023-01-29T05:14:16;100955.22;;;4.75;100.00
41862;BME280;27537;57.134;-2.136;2023-01-29T05:16:45;100945.66;;;4.82;100.00
41862;BME280;27537;57.134;-2.136;2023-01-29T05:19:13;100934.38;;;4.86;100.00
41862;BME280;27537;57.134;-2.136;2023-01-29T05:21:42;100926.59;;;4.86;100.00
41862;BME280;27537;57.134;-2.136;2023-01-29T05:26:36;100932.59;;;4.90;100.00
41862;BME280;27537;57.134;-2.136;2023-01-29T05:29:21;100917.13;;;4.82;100.00
41862;BME280;27537;57.134;-2.136;2023-01-29T05:31:48;100925.78;;;4.81;100.00
41862;BME280;27537;57.134;-2.136;2023-01-29T05:34:14;100931.84;;;4.82;100.00
41862;BME280;27537;57.134;-2.136;2023-01-29T05:36:41;100930.00;;;4.88;100.00
41862;BME280;27537;57.134;-2.136;2023-01-29T05:39:08;100917.84;;;4.95;100.00
41862;BME280;27537;57.134;-2.136;2023-01-29T05:41:34;100904.84;;;4.98;100.00
41862;BME280;27537;57.134;-2.136;2023-01-29T05:44:01;100903.09;;;4.97;100.00
41862;BME280;27537;57.134;-2.136;2023-01-29T05:46:27;100903.91;;;5.02;100.00
41862;BME280;27537;57.134;-2.136;2023-01-29T05:48:54;100908.16;;;5.09;100.00
41862;BME280;27537;57.134;-2.136;2023-01-29T05:51:21;100900.31;;;5.16;100.00
41862;BME280;27537;57.134;-2.136;2023-01-29T05:53:47;100889.78;;;5.25;100.00
41862;BME280;27537;57.134;-2.136;2023-01-29T05:56:14;100884.59;;;5.26;100.00
41862;BME280;27537;57.134;-2.136;2023-01-29T05:58:40;100863.97;;;5.16;100.00
41862;BME280;27537;57.134;-2.136;2023-01-29T06:01:08;100864.03;;;5.08;100.00
41862;BME280;27537;57.134;-2.136;2023-01-29T06:03:35;100870.06;;;5.11;100.00
41862;BME280;27537;57.134;-2.136;2023-01-29T06:06:02;100869.31;;;5.02;100.00
41862;BME280;27537;57.134;-2.136;2023-01-29T06:08:28;100856.34;;;5.02;100.00
41862;BME280;27537;57.134;-2.136;2023-01-29T06:10:55;100852.03;;;5.01;100.00
41862;BME280;27537;57.134;-2.136;2023-01-29T06:13:21;100851.28;;;4.94;100.00
41862;BME280;27537;57.134;-2.136;2023-01-29T06:15:49;100859.09;;;4.91;100.00
41862;BME280;27537;57.134;-2.136;2023-01-29T06:18:15;100839.28;;;4.82;100.00
41862;BME280;27537;57.134;-2.136;2023-01-29T06:20:42;100837.56;;;4.81;100.00
41862;BME280;27537;57.134;-2.136;2023-01-29T06:23:09;100841.91;;;4.81;100.00
41862;BME280;27537;57.134;-2.136;2023-01-29T06:25:35;100838.66;;;4.63;100.00
41862;BME280;27537;57.134;-2.136;2023-01-29T06:28:02;100824.91;;;4.55;100.00
41862;BME280;27537;57.134;-2.136;2023-01-29T06:30:28;100820.50;;;4.62;100.00
41862;BME280;27537;57.134;-2.136;2023-01-29T06:32:55;100823.06;;;4.66;100.00
41862;BME280;27537;57.134;-2.136;2023-01-29T06:35:24;100828.31;;;4.60;100.00
41862;BME280;27537;57.134;-2.136;2023-01-29T06:37:51;100830.97;;;4.55;100.00
41862;BME280;27537;57.134;-2.136;2023-01-29T06:40:18;100831.81;;;4.56;100.00
41862;BME280;27537;57.134;-2.136;2023-01-29T06:42:44;100834.41;;;4.56;100.00
41862;BME280;27537;57.134;-2.136;2023-01-29T06:45:11;100830.03;;;4.61;100.00
41862;BME280;27537;57.134;-2.136;2023-01-29T06:47:38;100835.19;;;4.64;100.00
41862;BME280;27537;57.134;-2.136;2023-01-29T06:50:04;100833.47;;;4.63;100.00
41862;BME280;27537;57.134;-2.136;2023-01-29T06:52:31;100848.91;;;4.71;100.00
41862;BME280;27537;57.134;-2.136;2023-01-29T06:54:58;100843.78;;;4.68;100.00
41862;BME280;27537;57.134;-2.136;2023-01-29T06:57:27;100833.47;;;4.63;100.00
41862;BME280;27537;57.134;-2.136;2023-01-29T06:59:54;100835.25;;;4.58;100.00
41862;BME280;27537;57.134;-2.136;2023-01-29T07:02:20;100824.00;;;4.59;100.00
41862;BME280;27537;57.134;-2.136;2023-01-29T07:04:47;100824.81;;;4.63;100.00
41862;BME280;27537;57.134;-2.136;2023-01-29T07:07:13;100821.44;;;4.54;100.00
41862;BME280;27537;57.134;-2.136;2023-01-29T07:09:40;100823.09;;;4.60;100.00
41862;BME280;27537;57.134;-2.136;2023-01-29T07:12:07;100819.66;;;4.61;100.00
41862;BME280;27537;57.134;-2.136;2023-01-29T07:14:34;100799.75;;;4.63;100.00
41862;BME280;27537;57.134;-2.136;2023-01-29T07:17:01;100805.72;;;4.68;100.00
41862;BME280;27537;57.134;-2.136;2023-01-29T07:19:28;100809.19;;;4.67;100.00
41862;BME280;27537;57.134;-2.136;2023-01-29T07:21:55;100802.41;;;4.59;100.00
41862;BME280;27537;57.134;-2.136;2023-01-29T07:24:22;100792.13;;;4.48;100.00
41862;BME280;27537;57.134;-2.136;2023-01-29T07:26:49;100797.16;;;4.62;100.00
41862;BME280;27537;57.134;-2.136;2023-01-29T07:29:16;100815.91;;;4.85;100.00
41862;BME280;27537;57.134;-2.136;2023-01-29T07:31:42;100788.94;;;4.97;100.00
41862;BME280;27537;57.134;-2.136;2023-01-29T07:34:09;100763.63;;;5.13;100.00
41862;BME280;27537;57.134;-2.136;2023-01-29T07:36:36;100753.16;;;5.19;100.00
41862;BME280;27537;57.134;-2.136;2023-01-29T07:39:02;100761.75;;;5.23;100.00
41862;BME280;27537;57.134;-2.136;2023-01-29T07:41:29;100763.41;;;5.28;100.00
41862;BME280;27537;57.134;-2.136;2023-01-29T07:43:55;100764.06;;;5.40;100.00
41862;BME280;27537;57.134;-2.136;2023-01-29T07:46:22;100752.63;;;5.53;100.00
41862;BME280;27537;57.134;-2.136;2023-01-29T07:48:49;100757.81;;;5.53;100.00
41862;BME280;27537;57.134;-2.136;2023-01-29T07:51:15;100751.00;;;5.47;100.00
41862;BME280;27537;57.134;-2.136;2023-01-29T07:53:43;100755.19;;;5.55;100.00
41862;BME280;27537;57.134;-2.136;2023-01-29T07:56:10;100751.78;;;5.51;100.00
41862;BME280;27537;57.134;-2.136;2023-01-29T07:58:36;100760.63;;;5.41;100.00
41862;BME280;27537;57.134;-2.136;2023-01-29T08:01:04;100747.63;;;5.41;100.00
41862;BME280;27537;57.134;-2.136;2023-01-29T08:03:30;100754.31;;;5.54;100.00
41862;BME280;27537;57.134;-2.136;2023-01-29T08:05:57;100757.84;;;5.50;100.00
41862;BME280;27537;57.134;-2.136;2023-01-29T08:08:23;100740.53;;;5.50;100.00
41862;BME280;27537;57.134;-2.136;2023-01-29T08:10:51;100748.22;;;5.58;100.00
41862;BME280;27537;57.134;-2.136;2023-01-29T08:13:17;100732.59;;;5.60;100.00
41862;BME280;27537;57.134;-2.136;2023-01-29T08:15:44;100733.53;;;5.56;100.00
41862;BME280;27537;57.134;-2.136;2023-01-29T08:18:11;100731.81;;;5.55;100.00
41862;BME280;27537;57.134;-2.136;2023-01-29T08:20:37;100730.91;;;5.57;100.00
41862;BME280;27537;57.134;-2.136;2023-01-29T08:23:05;100726.56;;;5.58;100.00
41862;BME280;27537;57.134;-2.136;2023-01-29T08:25:32;100728.44;;;5.51;100.00
41862;BME280;27537;57.134;-2.136;2023-01-29T08:27:59;100715.22;;;5.63;100.00
41862;BME280;27537;57.134;-2.136;2023-01-29T08:30:27;100704.03;;;5.60;100.00
41862;BME280;27537;57.134;-2.136;2023-01-29T08:32:54;100697.81;;;5.68;100.00
41862;BME280;27537;57.134;-2.136;2023-01-29T08:35:21;100694.38;;;5.66;100.00
41862;BME280;27537;57.134;-2.136;2023-01-29T08:37:54;100697.69;;;5.75;100.00
41862;BME280;27537;57.134;-2.136;2023-01-29T08:40:21;100710.63;;;5.79;100.00
41862;BME280;27537;57.134;-2.136;2023-01-29T08:42:48;100708.06;;;5.76;100.00
41862;BME280;27537;57.134;-2.136;2023-01-29T08:45:14;100702.91;;;5.75;100.00
41862;BME280;27537;57.134;-2.136;2023-01-29T08:47:45;100708.00;;;5.81;100.00
41862;BME280;27537;57.134;-2.136;2023-01-29T08:50:12;100694.13;;;5.80;100.00
41862;BME280;27537;57.134;-2.136;2023-01-29T08:52:38;100700.22;;;5.79;100.00
41862;BME280;27537;57.134;-2.136;2023-01-29T08:55:05;100692.34;;;5.82;100.00
41862;BME280;27537;57.134;-2.136;2023-01-29T08:57:32;100702.78;;;5.81;100.00
41862;BME280;27537;57.134;-2.136;2023-01-29T08:59:58;100705.31;;;5.84;100.00
41862;BME280;27537;57.134;-2.136;2023-01-29T09:02:25;100695.00;;;5.81;100.00
41862;BME280;27537;57.134;-2.136;2023-01-29T09:04:52;100683.69;;;5.83;100.00
41862;BME280;27537;57.134;-2.136;2023-01-29T09:07:18;100695.66;;;5.92;100.00
41862;BME280;27537;57.134;-2.136;2023-01-29T09:09:47;100666.25;;;5.90;100.00
41862;BME280;27537;57.134;-2.136;2023-01-29T09:12:13;100653.22;;;5.92;100.00
41862;BME280;27537;57.134;-2.136;2023-01-29T09:14:40;100638.63;;;5.84;100.00
41862;BME280;27537;57.134;-2.136;2023-01-29T09:17:08;100636.75;;;5.91;100.00
41862;BME280;27537;57.134;-2.136;2023-01-29T09:19:35;100640.16;;;5.93;100.00
41862;BME280;27537;57.134;-2.136;2023-01-29T09:22:01;100623.63;;;6.00;100.00
41862;BME280;27537;57.134;-2.136;2023-01-29T09:24:28;100622.81;;;5.95;100.00
41862;BME280;27537;57.134;-2.136;2023-01-29T09:26:55;100610.72;;;5.93;100.00
41862;BME280;27537;57.134;-2.136;2023-01-29T09:29:22;100591.56;;;6.00;100.00
41862;BME280;27537;57.134;-2.136;2023-01-29T09:31:48;100596.56;;;6.09;100.00
41862;BME280;27537;57.134;-2.136;2023-01-29T09:34:15;100593.00;;;6.15;100.00
41862;BME280;27537;57.134;-2.136;2023-01-29T09:36:42;100586.09;;;6.12;100.00
41862;BME280;27537;57.134;-2.136;2023-01-29T09:39:08;100582.44;;;6.21;100.00
41862;BME280;27537;57.134;-2.136;2023-01-29T09:47:03;100548.69;;;6.19;100.00
41862;BME280;27537;57.134;-2.136;2023-01-29T09:49:36;100542.59;;;6.20;100.00
41862;BME280;27537;57.134;-2.136;2023-01-29T09:57:03;100507.47;;;6.40;100.00
41862;BME280;27537;57.134;-2.136;2023-01-29T09:59:30;100508.31;;;6.40;100.00
41862;BME280;27537;57.134;-2.136;2023-01-29T10:01:59;100503.16;;;6.39;100.00
41862;BME280;27537;57.134;-2.136;2023-01-29T10:07:11;100479.91;;;6.33;100.00
41862;BME280;27537;57.134;-2.136;2023-01-29T10:23:02;100457.88;;;6.82;100.00
41862;BME280;27537;57.134;-2.136;2023-01-29T10:25:32;100433.19;;;6.95;100.00
41862;BME280;27537;57.134;-2.136;2023-01-29T10:28:02;100422.03;;;6.92;100.00
41862;BME280;27537;57.134;-2.136;2023-01-29T10:30:30;100444.97;;;7.10;100.00
41862;BME280;27537;57.134;-2.136;2023-01-29T10:33:00;100425.78;;;7.13;100.00
41862;BME280;27537;57.134;-2.136;2023-01-29T10:35:28;100435.31;;;7.14;100.00
41862;BME280;27537;57.134;-2.136;2023-01-29T10:37:57;100435.28;;;7.15;100.00
41862;BME280;27537;57.134;-2.136;2023-01-29T10:40:36;100421.78;;;7.31;100.00
41862;BME280;27537;57.134;-2.136;2023-01-29T10:56:15;100377.94;;;7.45;100.00
41862;BME280;27537;57.134;-2.136;2023-01-29T11:01:24;100370.25;;;7.70;100.00
41862;BME280;27537;57.134;-2.136;2023-01-29T11:03:56;100357.81;;;7.78;100.00
41862;BME280;27537;57.134;-2.136;2023-01-29T11:06:33;100365.25;;;7.63;100.00
41862;BME280;27537;57.134;-2.136;2023-01-29T11:11:54;100343.72;;;7.84;100.00
41862;BME280;27537;57.134;-2.136;2023-01-29T11:14:23;100327.09;;;7.88;100.00
41862;BME280;27537;57.134;-2.136;2023-01-29T11:16:51;100315.75;;;7.89;100.00
41862;BME280;27537;57.134;-2.136;2023-01-29T11:19:18;100303.72;;;8.12;100.00
41862;BME280;27537;57.134;-2.136;2023-01-29T11:22:01;100300.69;;;8.24;100.00
41862;BME280;27537;57.134;-2.136;2023-01-29T11:24:29;100281.69;;;8.46;100.00
41862;BME280;27537;57.134;-2.136;2023-01-29T11:26:57;100283.19;;;8.77;100.00
41862;BME280;27537;57.134;-2.136;2023-01-29T11:31:58;100269.72;;;8.87;100.00
41862;BME280;27537;57.134;-2.136;2023-01-29T11:34:25;100272.47;;;9.06;100.00
41862;BME280;27537;57.134;-2.136;2023-01-29T11:36:59;100233.72;;;9.18;100.00
41862;BME280;27537;57.134;-2.136;2023-01-29T11:39:27;100221.19;;;9.48;100.00
41862;BME280;27537;57.134;-2.136;2023-01-29T11:41:57;100216.84;;;9.69;100.00
41862;BME280;27537;57.134;-2.136;2023-01-29T11:46:52;100197.38;;;10.16;100.00
41862;BME280;27537;57.134;-2.136;2023-01-29T11:49:43;100173.69;;;10.19;100.00
41862;BME280;27537;57.134;-2.136;2023-01-29T11:52:08;100170.56;;;10.50;100.00
41862;BME280;27537;57.134;-2.136;2023-01-29T11:54:43;100155.41;;;10.57;100.00
41862;BME280;27537;57.134;-2.136;2023-01-29T11:59:52;100130.44;;;10.69;100.00
41862;BME280;27537;57.134;-2.136;2023-01-29T12:04:46;100128.25;;;11.13;100.00
41862;BME280;27537;57.134;-2.136;2023-01-29T12:07:14;100128.25;;;11.13;100.00
41862;BME280;27537;57.134;-2.136;2023-01-29T12:09:46;100117.56;;;11.18;100.00
41862;BME280;27537;57.134;-2.136;2023-01-29T12:17:39;100084.25;;;11.37;100.00
41862;BME280;27537;57.134;-2.136;2023-01-29T12:20:12;100072.06;;;11.36;100.00
41862;BME280;27537;57.134;-2.136;2023-01-29T12:30:20;100080.38;;;11.45;100.00
41862;BME280;27537;57.134;-2.136;2023-01-29T12:37:50;100073.38;;;11.45;100.00
41862;BME280;27537;57.134;-2.136;2023-01-29T12:40:20;100051.38;;;11.65;100.00
41862;BME280;27537;57.134;-2.136;2023-01-29T12:42:51;100049.06;;;11.59;100.00
41862;BME280;27537;57.134;-2.136;2023-01-29T12:45:21;100045.25;;;11.65;100.00
41862;BME280;27537;57.134;-2.136;2023-01-29T12:48:00;100043.00;;;11.74;100.00
41862;BME280;27537;57.134;-2.136;2023-01-29T12:52:55;100030.56;;;11.78;100.00
41862;BME280;27537;57.134;-2.136;2023-01-29T12:55:25;100039.03;;;11.83;100.00
41862;BME280;27537;57.134;-2.136;2023-01-29T12:57:57;100034.88;;;11.79;100.00
41862;BME280;27537;57.134;-2.136;2023-01-29T13:00:26;100043.19;;;11.87;100.00
41862;BME280;27537;57.134;-2.136;2023-01-29T13:05:44;100074.06;;;11.82;100.00
41862;BME280;27537;57.134;-2.136;2023-01-29T13:10:52;100065.84;;;11.72;100.00
41862;BME280;27537;57.134;-2.136;2023-01-29T13:13:33;100054.22;;;11.61;100.00
41862;BME280;27537;57.134;-2.136;2023-01-29T13:16:06;100058.09;;;11.53;100.00
41862;BME280;27537;57.134;-2.136;2023-01-29T13:18:36;100061.75;;;11.67;100.00
41862;BME280;27537;57.134;-2.136;2023-01-29T13:21:05;100057.38;;;11.67;100.00
41862;BME280;27537;57.134;-2.136;2023-01-29T13:23:37;100055.25;;;11.58;100.00
41862;BME280;27537;57.134;-2.136;2023-01-29T13:26:04;100049.84;;;11.44;100.00
41862;BME280;27537;57.134;-2.136;2023-01-29T13:28:31;100039.06;;;11.50;100.00
41862;BME280;27537;57.134;-2.136;2023-01-29T13:31:12;100041.28;;;11.40;100.00
41862;BME280;27537;57.134;-2.136;2023-01-29T13:33:40;100037.91;;;11.38;100.00
41862;BME280;27537;57.134;-2.136;2023-01-29T13:36:15;100043.53;;;11.48;100.00
41862;BME280;27537;57.134;-2.136;2023-01-29T13:38:44;100033.13;;;11.46;100.00
41862;BME280;27537;57.134;-2.136;2023-01-29T13:41:11;100031.13;;;11.51;100.00
41862;BME280;27537;57.134;-2.136;2023-01-29T13:43:40;100026.47;;;11.56;100.00
41862;BME280;27537;57.134;-2.136;2023-01-29T13:46:08;100023.53;;;11.63;100.00
41862;BME280;27537;57.134;-2.136;2023-01-29T13:48:40;100032.78;;;11.52;100.00
41862;BME280;27537;57.134;-2.136;2023-01-29T13:51:11;100032.41;;;11.60;100.00
41862;BME280;27537;57.134;-2.136;2023-01-29T13:53:55;100022.50;;;11.49;100.00
41862;BME280;27537;57.134;-2.136;2023-01-29T13:58:56;100000.84;;;11.46;100.00
41862;BME280;27537;57.134;-2.136;2023-01-29T14:06:45;99999.94;;;11.29;100.00
41862;BME280;27537;57.134;-2.136;2023-01-29T14:11:58;99995.66;;;11.44;100.00
41862;BME280;27537;57.134;-2.136;2023-01-29T14:17:10;99979.56;;;11.34;100.00
41862;BME280;27537;57.134;-2.136;2023-01-29T14:19:37;99979.69;;;11.15;100.00
41862;BME280;27537;57.134;-2.136;2023-01-29T14:22:03;99987.53;;;11.15;100.00
41862;BME280;27537;57.134;-2.136;2023-01-29T14:24:30;99975.34;;;10.98;100.00
41862;BME280;27537;57.134;-2.136;2023-01-29T14:26:59;99961.94;;;10.87;100.00
41862;BME280;27537;57.134;-2.136;2023-01-29T14:29:29;99956.94;;;10.82;100.00
41862;BME280;27537;57.134;-2.136;2023-01-29T14:32:09;99950.47;;;10.90;100.00
41862;BME280;27537;57.134;-2.136;2023-01-29T14:34:41;99957.16;;;10.95;100.00
41862;BME280;27537;57.134;-2.136;2023-01-29T14:42:22;99938.25;;;10.55;100.00
41862;BME280;27537;57.134;-2.136;2023-01-29T14:44:57;99930.91;;;10.44;100.00
41862;BME280;27537;57.134;-2.136;2023-01-29T14:52:35;99938.38;;;10.52;100.00
41862;BME280;27537;57.134;-2.136;2023-01-29T14:55:04;99941.63;;;10.57;100.00
41862;BME280;27537;57.134;-2.136;2023-01-29T14:57:32;99934.22;;;10.66;100.00
41862;BME280;27537;57.134;-2.136;2023-01-29T15:00:00;99932.53;;;10.64;100.00
41862;BME280;27537;57.134;-2.136;2023-01-29T15:02:37;99909.34;;;10.57;100.00
41862;BME280;27537;57.134;-2.136;2023-01-29T15:05:21;99920.69;;;10.57;100.00
41862;BME280;27537;57.134;-2.136;2023-01-29T15:07:57;99907.34;;;10.62;100.00
41862;BME280;27537;57.134;-2.136;2023-01-29T15:10:30;99905.81;;;10.58;100.00
41862;BME280;27537;57.134;-2.136;2023-01-29T15:13:02;99901.59;;;10.55;100.00
41862;BME280;27537;57.134;-2.136;2023-01-29T15:15:37;99911.19;;;10.55;100.00
41862;BME280;27537;57.134;-2.136;2023-01-29T15:20:35;99919.53;;;10.63;100.00
41862;BME280;27537;57.134;-2.136;2023-01-29T15:23:02;99933.91;;;10.72;100.00
41862;BME280;27537;57.134;-2.136;2023-01-29T15:25:33;99927.38;;;11.14;100.00
41862;BME280;27537;57.134;-2.136;2023-01-29T15:28:00;99940.06;;;11.21;100.00
41862;BME280;27537;57.134;-2.136;2023-01-29T15:30:30;99933.13;;;11.20;100.00
41862;BME280;27537;57.134;-2.136;2023-01-29T15:32:57;99928.50;;;11.42;100.00
41862;BME280;27537;57.134;-2.136;2023-01-29T15:35:30;99935.47;;;11.43;100.00
41862;BME280;27537;57.134;-2.136;2023-01-29T15:40:26;99932.78;;;11.11;100.00
41862;BME280;27537;57.134;-2.136;2023-01-29T15:42:53;99964.50;;;11.22;100.00
41862;BME280;27537;57.134;-2.136;2023-01-29T15:45:20;99973.53;;;11.16;100.00
41862;BME280;27537;57.134;-2.136;2023-01-29T15:47:46;99997.44;;;10.93;100.00